Aviation Digital Data Service (ADDS)

Output produced by METARs form (2351 UTC 18 October 2019)
found at http://www.aviationweather.gov/metar/data/
 
METAR text: UUEE 182330Z 24002MPS 0150 0100E R24L/0750D R24C/0750D R24R/0450N FG VV001 08/08 Q1019 R88/190057 NOSIG RMK QBB040
Conditions at: UUEE (MOSCOW/SHEREMET', RU) observed 2330 UTC 18 October 2019
Temperature: 8.0°C (46°F)
Dewpoint: 8.0°C (46°F) [RH = 100%]
Pressure (altimeter): 30.09 inches Hg (1019.0 mb)
Winds: from the WSW (240 degrees) at 5 MPH (4 knots; 2.1 m/s)
Visibility: 0.09 miles (0.14 km)
Ceiling: indefinite ceiling with vertical visibility of 100 feet AGL
Clouds: obscured sky
Weather: FG  (fog)

METAR text: UUEE 182300Z 26003MPS 0400 0300SE R24R/1000D FG VV001 08/08 Q1019 R88/190057 TEMPO 0300 FG RMK QBB050
Conditions at: UUEE (MOSCOW/SHEREMET', RU) observed 2300 UTC 18 October 2019
Temperature: 8.0°C (46°F)
Dewpoint: 8.0°C (46°F) [RH = 100%]
Pressure (altimeter): 30.09 inches Hg (1019.0 mb)
Winds: from the W (260 degrees) at 7 MPH (6 knots; 3.1 m/s)
Visibility: 0.25 miles (0.40 km)
Ceiling: indefinite ceiling with vertical visibility of 100 feet AGL
Clouds: obscured sky
Weather: FG  (fog)

METAR text: UUEE 182230Z 25003MPS 2500 1000E BR SCT002 08/08 Q1019 R24C/190057 R24R/190057 TEMPO 0300 FG
Conditions at: UUEE (MOSCOW/SHEREMET', RU) observed 2230 UTC 18 October 2019
Temperature: 8.0°C (46°F)
Dewpoint: 8.0°C (46°F) [RH = 100%]
Pressure (altimeter): 30.09 inches Hg (1019.0 mb)
Winds: from the WSW (250 degrees) at 7 MPH (6 knots; 3.1 m/s)
Visibility: 1.55 miles (2.49 km)
Ceiling: at least 12,000 feet AGL
Clouds: scattered clouds at 200 feet AGL
Weather: BR  (mist)

METAR text: UUEE 182200Z 25002MPS 0350 0150E R24R/0800D FG VV002 09/09 Q1019 R24C/190057 R24R/190057 TEMPO 0300 FG
Conditions at: UUEE (MOSCOW/SHEREMET', RU) observed 2200 UTC 18 October 2019
Temperature: 9.0°C (48°F)
Dewpoint: 9.0°C (48°F) [RH = 100%]
Pressure (altimeter): 30.09 inches Hg (1019.0 mb)
Winds: from the WSW (250 degrees) at 5 MPH (4 knots; 2.1 m/s)
Visibility: 0.22 miles (0.35 km)
Ceiling: indefinite ceiling with vertical visibility of 200 feet AGL
Clouds: obscured sky
Weather: FG  (fog)

METAR text: UUEE 182130Z 28003MPS 7000 SCT005 10/10 Q1018 R88/190057 NOSIG
Conditions at: UUEE (MOSCOW/SHEREMET', RU) observed 2130 UTC 18 October 2019
Temperature: 10.0°C (50°F)
Dewpoint: 10.0°C (50°F) [RH = 100%]
Pressure (altimeter): 30.06 inches Hg (1018.0 mb)
Winds: from the W (280 degrees) at 7 MPH (6 knots; 3.1 m/s)
Visibility: 4 miles ( 7 km)
Ceiling: at least 12,000 feet AGL
Clouds: scattered clouds at 500 feet AGL
Weather: no significant weather observed at this time

METAR text: UUEE 182100Z 26004MPS 6000 BKN006 10/10 Q1018 R88/190057 NOSIG
Conditions at: UUEE (MOSCOW/SHEREMET', RU) observed 2100 UTC 18 October 2019
Temperature: 10.0°C (50°F)
Dewpoint: 10.0°C (50°F) [RH = 100%]
Pressure (altimeter): 30.06 inches Hg (1018.0 mb)
Winds: from the W (260 degrees) at 9 MPH (8 knots; 4.1 m/s)
Visibility: 4 miles ( 6 km)
Ceiling: 600 feet AGL
Clouds: broken clouds at 600 feet AGL
Weather: no significant weather observed at this time

METAR text: UUEE 182030Z 25004MPS 9000 BKN010 11/11 Q1018 R88/190057 NOSIG
Conditions at: UUEE (MOSCOW/SHEREMET', RU) observed 2030 UTC 18 October 2019
Temperature: 11.0°C (52°F)
Dewpoint: 11.0°C (52°F) [RH = 100%]
Pressure (altimeter): 30.06 inches Hg (1018.0 mb)
Winds: from the WSW (250 degrees) at 9 MPH (8 knots; 4.1 m/s)
Visibility: 6 miles ( 9 km)
Ceiling: 1000 feet AGL
Clouds: broken clouds at 1000 feet AGL
Weather: no significant weather observed at this time

METAR text: UUEE 182000Z 25004MPS 9999 BKN010 11/11 Q1018 R88/190057 NOSIG
Conditions at: UUEE (MOSCOW/SHEREMET', RU) observed 2000 UTC 18 October 2019
Temperature: 11.0°C (52°F)
Dewpoint: 11.0°C (52°F) [RH = 100%]
Pressure (altimeter): 30.06 inches Hg (1018.0 mb)
Winds: from the WSW (250 degrees) at 9 MPH (8 knots; 4.1 m/s)
Visibility: 6 or more miles (10+ km)
Ceiling: 1000 feet AGL
Clouds: broken clouds at 1000 feet AGL
Weather: no significant weather observed at this time

METAR text: UUEE 181930Z 25004MPS 9999 SCT008 BKN043 11/10 Q1018 R88/190057 NOSIG
Conditions at: UUEE (MOSCOW/SHEREMET', RU) observed 1930 UTC 18 October 2019
Temperature: 11.0°C (52°F)
Dewpoint: 10.0°C (50°F) [RH = 94%]
Pressure (altimeter): 30.06 inches Hg (1018.0 mb)
Winds: from the WSW (250 degrees) at 9 MPH (8 knots; 4.1 m/s)
Visibility: 6 or more miles (10+ km)
Ceiling: 4300 feet AGL
Clouds: scattered clouds at 800 feet AGL
broken clouds at 4300 feet AGL
Weather: no significant weather observed at this time

METAR text: UUEE 181900Z 27004MPS 9999 BKN010 12/11 Q1018 R88/190057 NOSIG
Conditions at: UUEE (MOSCOW/SHEREMET', RU) observed 1900 UTC 18 October 2019
Temperature: 12.0°C (54°F)
Dewpoint: 11.0°C (52°F) [RH = 94%]
Pressure (altimeter): 30.06 inches Hg (1018.0 mb)
Winds: from the W (270 degrees) at 9 MPH (8 knots; 4.1 m/s)
Visibility: 6 or more miles (10+ km)
Ceiling: 1000 feet AGL
Clouds: broken clouds at 1000 feet AGL
Weather: no significant weather observed at this time

METAR text: UUEE 181830Z 27004MPS 9999 BKN028 12/11 Q1018 R88/190057 NOSIG
Conditions at: UUEE (MOSCOW/SHEREMET', RU) observed 1830 UTC 18 October 2019
Temperature: 12.0°C (54°F)
Dewpoint: 11.0°C (52°F) [RH = 94%]
Pressure (altimeter): 30.06 inches Hg (1018.0 mb)
Winds: from the W (270 degrees) at 9 MPH (8 knots; 4.1 m/s)
Visibility: 6 or more miles (10+ km)
Ceiling: 2800 feet AGL
Clouds: broken clouds at 2800 feet AGL
Weather: no significant weather observed at this time

METAR text: UUEE 181800Z 26003MPS 9999 -RA SCT008 OVC028 12/11 Q1018 R88/190057 NOSIG
Conditions at: UUEE (MOSCOW/SHEREMET', RU) observed 1800 UTC 18 October 2019
Temperature: 12.0°C (54°F)
Dewpoint: 11.0°C (52°F) [RH = 94%]
Pressure (altimeter): 30.06 inches Hg (1018.0 mb)
Winds: from the W (260 degrees) at 7 MPH (6 knots; 3.1 m/s)
Visibility: 6 or more miles (10+ km)
Ceiling: 2800 feet AGL
Clouds: scattered clouds at 800 feet AGL
overcast cloud deck at 2800 feet AGL
Weather: -RA  (light rain)

METAR text: UUEE 181730Z 28002MPS 9999 BKN009 12/12 Q1018 R24L/190057 R24C/190057 R24R/290051 NOSIG
Conditions at: UUEE (MOSCOW/SHEREMET', RU) observed 1730 UTC 18 October 2019
Temperature: 12.0°C (54°F)
Dewpoint: 12.0°C (54°F) [RH = 100%]
Pressure (altimeter): 30.06 inches Hg (1018.0 mb)
Winds: from the W (280 degrees) at 5 MPH (4 knots; 2.1 m/s)
Visibility: 6 or more miles (10+ km)
Ceiling: 900 feet AGL
Clouds: broken clouds at 900 feet AGL
Weather: no significant weather observed at this time

METAR text: UUEE 181700Z 26003MPS 9999 BKN009 12/11 Q1018 R24L/190057 R24C/190057 R24R/290051 NOSIG
Conditions at: UUEE (MOSCOW/SHEREMET', RU) observed 1700 UTC 18 October 2019
Temperature: 12.0°C (54°F)
Dewpoint: 11.0°C (52°F) [RH = 94%]
Pressure (altimeter): 30.06 inches Hg (1018.0 mb)
Winds: from the W (260 degrees) at 7 MPH (6 knots; 3.1 m/s)
Visibility: 6 or more miles (10+ km)
Ceiling: 900 feet AGL
Clouds: broken clouds at 900 feet AGL
Weather: no significant weather observed at this time

METAR text: UUEE 181630Z 26003MPS 9999 BKN015 12/12 Q1017 R24L/190057 R24C/190057 R24R/290051 NOSIG
Conditions at: UUEE (MOSCOW/SHEREMET', RU) observed 1630 UTC 18 October 2019
Temperature: 12.0°C (54°F)
Dewpoint: 12.0°C (54°F) [RH = 100%]
Pressure (altimeter): 30.03 inches Hg (1017.0 mb)
Winds: from the W (260 degrees) at 7 MPH (6 knots; 3.1 m/s)
Visibility: 6 or more miles (10+ km)
Ceiling: 1500 feet AGL
Clouds: broken clouds at 1500 feet AGL
Weather: no significant weather observed at this time

METAR text: UUEE 181600Z 27003MPS 9999 BKN014 12/11 Q1017 R24L/190057 R24C/190057 R24R/290051 NOSIG
Conditions at: UUEE (MOSCOW/SHEREMET', RU) observed 1600 UTC 18 October 2019
Temperature: 12.0°C (54°F)
Dewpoint: 11.0°C (52°F) [RH = 94%]
Pressure (altimeter): 30.03 inches Hg (1017.0 mb)
Winds: from the W (270 degrees) at 7 MPH (6 knots; 3.1 m/s)
Visibility: 6 or more miles (10+ km)
Ceiling: 1400 feet AGL
Clouds: broken clouds at 1400 feet AGL
Weather: no significant weather observed at this time

METAR text: UUEE 181530Z 26003MPS 9999 OVC011 12/11 Q1017 R24L/190057 R24C/190057 R24R/290051 NOSIG
Conditions at: UUEE (MOSCOW/SHEREMET', RU) observed 1530 UTC 18 October 2019
Temperature: 12.0°C (54°F)
Dewpoint: 11.0°C (52°F) [RH = 94%]
Pressure (altimeter): 30.03 inches Hg (1017.0 mb)
Winds: from the W (260 degrees) at 7 MPH (6 knots; 3.1 m/s)
Visibility: 6 or more miles (10+ km)
Ceiling: 1100 feet AGL
Clouds: overcast cloud deck at 1100 feet AGL
Weather: no significant weather observed at this time

METAR text: UUEE 181500Z 25004MPS 9000 -SHRA BKN014CB 12/11 Q1017 R24L/190057 R24C/190057 R24R/CLRD62 NOSIG
Conditions at: UUEE (MOSCOW/SHEREMET', RU) observed 1500 UTC 18 October 2019
Temperature: 12.0°C (54°F)
Dewpoint: 11.0°C (52°F) [RH = 94%]
Pressure (altimeter): 30.03 inches Hg (1017.0 mb)
Winds: from the WSW (250 degrees) at 9 MPH (8 knots; 4.1 m/s)
Visibility: 6 miles ( 9 km)
Ceiling: 1400 feet AGL
Clouds: broken clouds at 1400 feet AGL
Weather: -SHRA  (light rain showers)

METAR text: UUEE 181430Z 27003MPS 9999 BKN015 13/10 Q1017 R88/CLRD62 NOSIG
Conditions at: UUEE (MOSCOW/SHEREMET', RU) observed 1430 UTC 18 October 2019
Temperature: 13.0°C (55°F)
Dewpoint: 10.0°C (50°F) [RH = 82%]
Pressure (altimeter): 30.03 inches Hg (1017.0 mb)
Winds: from the W (270 degrees) at 7 MPH (6 knots; 3.1 m/s)
Visibility: 6 or more miles (10+ km)
Ceiling: 1500 feet AGL
Clouds: broken clouds at 1500 feet AGL
Weather: no significant weather observed at this time

METAR text: UUEE 181400Z 27004MPS 9999 BKN018 13/10 Q1016 R88/62D NOSIG
Conditions at: UUEE (MOSCOW/SHEREMET', RU) observed 1400 UTC 18 October 2019
Temperature: 13.0°C (55°F)
Dewpoint: 10.0°C (50°F) [RH = 82%]
Pressure (altimeter): 30.00 inches Hg (1016.0 mb)
Winds: from the W (270 degrees) at 9 MPH (8 knots; 4.1 m/s)
Visibility: 6 or more miles (10+ km)
Ceiling: 1800 feet AGL
Clouds: broken clouds at 1800 feet AGL
Weather: no significant weather observed at this time

METAR text: UUEE 181330Z 26004MPS 9999 BKN022 14/10 Q1016 R88/CLRD62 NOSIG
Conditions at: UUEE (MOSCOW/SHEREMET', RU) observed 1330 UTC 18 October 2019
Temperature: 14.0°C (57°F)
Dewpoint: 10.0°C (50°F) [RH = 77%]
Pressure (altimeter): 30.00 inches Hg (1016.0 mb)
Winds: from the W (260 degrees) at 9 MPH (8 knots; 4.1 m/s)
Visibility: 6 or more miles (10+ km)
Ceiling: 2200 feet AGL
Clouds: broken clouds at 2200 feet AGL
Weather: no significant weather observed at this time

METAR text: UUEE 181300Z 26004MPS 9999 BKN028 14/09 Q1016 R88/62D NOSIG
Conditions at: UUEE (MOSCOW/SHEREMET', RU) observed 1300 UTC 18 October 2019
Temperature: 14.0°C (57°F)
Dewpoint: 9.0°C (48°F) [RH = 72%]
Pressure (altimeter): 30.00 inches Hg (1016.0 mb)
Winds: from the W (260 degrees) at 9 MPH (8 knots; 4.1 m/s)
Visibility: 6 or more miles (10+ km)
Ceiling: 2800 feet AGL
Clouds: broken clouds at 2800 feet AGL
Weather: no significant weather observed at this time

METAR text: UUEE 181230Z 28004MPS 9999 SCT030 14/09 Q1016 R88/62D NOSIG
Conditions at: UUEE (MOSCOW/SHEREMET', RU) observed 1230 UTC 18 October 2019
Temperature: 14.0°C (57°F)
Dewpoint: 9.0°C (48°F) [RH = 72%]
Pressure (altimeter): 30.00 inches Hg (1016.0 mb)
Winds: from the W (280 degrees) at 9 MPH (8 knots; 4.1 m/s)
Visibility: 6 or more miles (10+ km)
Ceiling: at least 12,000 feet AGL
Clouds: scattered clouds at 3000 feet AGL
Weather: no significant weather observed at this time

METAR text: UUEE 181200Z 27005MPS 9999 SCT030 14/09 Q1016 R88/CLRD62 NOSIG
Conditions at: UUEE (MOSCOW/SHEREMET', RU) observed 1200 UTC 18 October 2019
Temperature: 14.0°C (57°F)
Dewpoint: 9.0°C (48°F) [RH = 72%]
Pressure (altimeter): 30.00 inches Hg (1016.0 mb)
Winds: from the W (270 degrees) at 12 MPH (10 knots; 5.1 m/s)
Visibility: 6 or more miles (10+ km)
Ceiling: at least 12,000 feet AGL
Clouds: scattered clouds at 3000 feet AGL
Weather: no significant weather observed at this time

METAR text: UUEE 181130Z 28005MPS 9999 SCT033 14/08 Q1016 R88/CLRD62 NOSIG
Conditions at: UUEE (MOSCOW/SHEREMET', RU) observed 1130 UTC 18 October 2019
Temperature: 14.0°C (57°F)
Dewpoint: 8.0°C (46°F) [RH = 67%]
Pressure (altimeter): 30.00 inches Hg (1016.0 mb)
Winds: from the W (280 degrees) at 12 MPH (10 knots; 5.1 m/s)
Visibility: 6 or more miles (10+ km)
Ceiling: at least 12,000 feet AGL
Clouds: scattered clouds at 3300 feet AGL
Weather: no significant weather observed at this time

METAR text: UUEE 181100Z 28004MPS 9999 SCT032 16/08 Q1016 R88/62D NOSIG
Conditions at: UUEE (MOSCOW/SHEREMET', RU) observed 1100 UTC 18 October 2019
Temperature: 16.0°C (61°F)
Dewpoint: 8.0°C (46°F) [RH = 59%]
Pressure (altimeter): 30.00 inches Hg (1016.0 mb)
Winds: from the W (280 degrees) at 9 MPH (8 knots; 4.1 m/s)
Visibility: 6 or more miles (10+ km)
Ceiling: at least 12,000 feet AGL
Clouds: scattered clouds at 3200 feet AGL
Weather: no significant weather observed at this time

METAR text: UUEE 181030Z 29003MPS 240V350 9999 SCT024 15/09 Q1016 R88/CLRD62 NOSIG
Conditions at: UUEE (MOSCOW/SHEREMET', RU) observed 1030 UTC 18 October 2019
Temperature: 15.0°C (59°F)
Dewpoint: 9.0°C (48°F) [RH = 67%]
Pressure (altimeter): 30.00 inches Hg (1016.0 mb)
Winds: from the WNW (290 degrees) at 7 MPH (6 knots; 3.1 m/s)
Visibility: 6 or more miles (10+ km)
Ceiling: at least 12,000 feet AGL
Clouds: scattered clouds at 2400 feet AGL
Weather: no significant weather observed at this time

METAR text: UUEE 181000Z 28003MPS 9999 SCT024 15/09 Q1016 R88/CLRD62 NOSIG
Conditions at: UUEE (MOSCOW/SHEREMET', RU) observed 1000 UTC 18 October 2019
Temperature: 15.0°C (59°F)
Dewpoint: 9.0°C (48°F) [RH = 67%]
Pressure (altimeter): 30.00 inches Hg (1016.0 mb)
Winds: from the W (280 degrees) at 7 MPH (6 knots; 3.1 m/s)
Visibility: 6 or more miles (10+ km)
Ceiling: at least 12,000 feet AGL
Clouds: scattered clouds at 2400 feet AGL
Weather: no significant weather observed at this time

METAR text: UUEE 180930Z 27003MPS 240V300 9999 SCT019 14/09 Q1016 R88/CLRD62 NOSIG
Conditions at: UUEE (MOSCOW/SHEREMET', RU) observed 0930 UTC 18 October 2019
Temperature: 14.0°C (57°F)
Dewpoint: 9.0°C (48°F) [RH = 72%]
Pressure (altimeter): 30.00 inches Hg (1016.0 mb)
Winds: from the W (270 degrees) at 7 MPH (6 knots; 3.1 m/s)
Visibility: 6 or more miles (10+ km)
Ceiling: at least 12,000 feet AGL
Clouds: scattered clouds at 1900 feet AGL
Weather: no significant weather observed at this time

METAR text: UUEE 180900Z 27004MPS 9999 BKN017 13/10 Q1016 R24L/CLRD62 R24C/190057 R24R/290051 NOSIG
Conditions at: UUEE (MOSCOW/SHEREMET', RU) observed 0900 UTC 18 October 2019
Temperature: 13.0°C (55°F)
Dewpoint: 10.0°C (50°F) [RH = 82%]
Pressure (altimeter): 30.00 inches Hg (1016.0 mb)
Winds: from the W (270 degrees) at 9 MPH (8 knots; 4.1 m/s)
Visibility: 6 or more miles (10+ km)
Ceiling: 1700 feet AGL
Clouds: broken clouds at 1700 feet AGL
Weather: no significant weather observed at this time

METAR text: UUEE 180830Z 27004MPS 9999 BKN024 13/10 Q1016 R24C/190057 R24R/290051 NOSIG
Conditions at: UUEE (MOSCOW/SHEREMET', RU) observed 0830 UTC 18 October 2019
Temperature: 13.0°C (55°F)
Dewpoint: 10.0°C (50°F) [RH = 82%]
Pressure (altimeter): 30.00 inches Hg (1016.0 mb)
Winds: from the W (270 degrees) at 9 MPH (8 knots; 4.1 m/s)
Visibility: 6 or more miles (10+ km)
Ceiling: 2400 feet AGL
Clouds: broken clouds at 2400 feet AGL
Weather: no significant weather observed at this time

METAR text: UUEE 180800Z 27004MPS 9999 BKN025 12/10 Q1015 R24C/190057 R24R/290051 NOSIG
Conditions at: UUEE (MOSCOW/SHEREMET', RU) observed 0800 UTC 18 October 2019
Temperature: 12.0°C (54°F)
Dewpoint: 10.0°C (50°F) [RH = 88%]
Pressure (altimeter): 29.97 inches Hg (1015.0 mb)
Winds: from the W (270 degrees) at 9 MPH (8 knots; 4.1 m/s)
Visibility: 6 or more miles (10+ km)
Ceiling: 2500 feet AGL
Clouds: broken clouds at 2500 feet AGL
Weather: no significant weather observed at this time

METAR text: UUEE 180730Z 27003MPS 9999 BKN030 12/09 Q1015 R24L/190057 R24C/190057 R24R/290051 NOSIG
Conditions at: UUEE (MOSCOW/SHEREMET', RU) observed 0730 UTC 18 October 2019
Temperature: 12.0°C (54°F)
Dewpoint: 9.0°C (48°F) [RH = 82%]
Pressure (altimeter): 29.97 inches Hg (1015.0 mb)
Winds: from the W (270 degrees) at 7 MPH (6 knots; 3.1 m/s)
Visibility: 6 or more miles (10+ km)
Ceiling: 3000 feet AGL
Clouds: broken clouds at 3000 feet AGL
Weather: no significant weather observed at this time

METAR text: UUEE 180700Z 28003MPS 240V320 9999 BKN013 12/10 Q1015 R24L/190057 R24C/190057 R24R/290051 NOSIG
Conditions at: UUEE (MOSCOW/SHEREMET', RU) observed 0700 UTC 18 October 2019
Temperature: 12.0°C (54°F)
Dewpoint: 10.0°C (50°F) [RH = 88%]
Pressure (altimeter): 29.97 inches Hg (1015.0 mb)
Winds: from the W (280 degrees) at 7 MPH (6 knots; 3.1 m/s)
Visibility: 6 or more miles (10+ km)
Ceiling: 1300 feet AGL
Clouds: broken clouds at 1300 feet AGL
Weather: no significant weather observed at this time

METAR text: UUEE 180630Z 27003MPS 9999 BKN012 12/10 Q1015 R24L/190057 R24C/190057 R24R/290051 NOSIG
Conditions at: UUEE (MOSCOW/SHEREMET', RU) observed 0630 UTC 18 October 2019
Temperature: 12.0°C (54°F)
Dewpoint: 10.0°C (50°F) [RH = 88%]
Pressure (altimeter): 29.97 inches Hg (1015.0 mb)
Winds: from the W (270 degrees) at 7 MPH (6 knots; 3.1 m/s)
Visibility: 6 or more miles (10+ km)
Ceiling: 1200 feet AGL
Clouds: broken clouds at 1200 feet AGL
Weather: no significant weather observed at this time

METAR text: UUEE 180600Z 28003MPS 9999 BKN011 12/10 Q1015 R24L/190057 R24C/190057 R24R/290051 NOSIG
Conditions at: UUEE (MOSCOW/SHEREMET', RU) observed 0600 UTC 18 October 2019
Temperature: 12.0°C (54°F)
Dewpoint: 10.0°C (50°F) [RH = 88%]
Pressure (altimeter): 29.97 inches Hg (1015.0 mb)
Winds: from the W (280 degrees) at 7 MPH (6 knots; 3.1 m/s)
Visibility: 6 or more miles (10+ km)
Ceiling: 1100 feet AGL
Clouds: broken clouds at 1100 feet AGL
Weather: no significant weather observed at this time

METAR text: UUEE 180530Z 27004MPS 9999 BKN010 12/10 Q1014 R88/290051 NOSIG
Conditions at: UUEE (MOSCOW/SHEREMET', RU) observed 0530 UTC 18 October 2019
Temperature: 12.0°C (54°F)
Dewpoint: 10.0°C (50°F) [RH = 88%]
Pressure (altimeter): 29.94 inches Hg (1014.0 mb)
Winds: from the W (270 degrees) at 9 MPH (8 knots; 4.1 m/s)
Visibility: 6 or more miles (10+ km)
Ceiling: 1000 feet AGL
Clouds: broken clouds at 1000 feet AGL
Weather: no significant weather observed at this time

METAR text: UUEE 180500Z 27004MPS 9999 BKN012 12/10 Q1014 R88/290051 NOSIG
Conditions at: UUEE (MOSCOW/SHEREMET', RU) observed 0500 UTC 18 October 2019
Temperature: 12.0°C (54°F)
Dewpoint: 10.0°C (50°F) [RH = 88%]
Pressure (altimeter): 29.94 inches Hg (1014.0 mb)
Winds: from the W (270 degrees) at 9 MPH (8 knots; 4.1 m/s)
Visibility: 6 or more miles (10+ km)
Ceiling: 1200 feet AGL
Clouds: broken clouds at 1200 feet AGL
Weather: no significant weather observed at this time

METAR text: UUEE 180430Z 27003MPS 9999 BKN011 11/11 Q1014 R88/290051 NOSIG
Conditions at: UUEE (MOSCOW/SHEREMET', RU) observed 0430 UTC 18 October 2019
Temperature: 11.0°C (52°F)
Dewpoint: 11.0°C (52°F) [RH = 100%]
Pressure (altimeter): 29.94 inches Hg (1014.0 mb)
Winds: from the W (270 degrees) at 7 MPH (6 knots; 3.1 m/s)
Visibility: 6 or more miles (10+ km)
Ceiling: 1100 feet AGL
Clouds: broken clouds at 1100 feet AGL
Weather: no significant weather observed at this time

METAR text: UUEE 180400Z 28004MPS 9999 SCT009 BKN033CB 12/11 Q1014 R88/290051 NOSIG
Conditions at: UUEE (MOSCOW/SHEREMET', RU) observed 0400 UTC 18 October 2019
Temperature: 12.0°C (54°F)
Dewpoint: 11.0°C (52°F) [RH = 94%]
Pressure (altimeter): 29.94 inches Hg (1014.0 mb)
Winds: from the W (280 degrees) at 9 MPH (8 knots; 4.1 m/s)
Visibility: 6 or more miles (10+ km)
Ceiling: 3300 feet AGL
Clouds: scattered clouds at 900 feet AGL
broken clouds at 3300 feet AGL
Weather: no significant weather observed at this time

METAR text: UUEE 180330Z 27005MPS 9999 BKN011 11/11 Q1013 R88/290051 NOSIG
Conditions at: UUEE (MOSCOW/SHEREMET', RU) observed 0330 UTC 18 October 2019
Temperature: 11.0°C (52°F)
Dewpoint: 11.0°C (52°F) [RH = 100%]
Pressure (altimeter): 29.91 inches Hg (1013.0 mb)
Winds: from the W (270 degrees) at 12 MPH (10 knots; 5.1 m/s)
Visibility: 6 or more miles (10+ km)
Ceiling: 1100 feet AGL
Clouds: broken clouds at 1100 feet AGL
Weather: no significant weather observed at this time

METAR text: UUEE 180300Z 27005MPS 9999 OVC019 11/11 Q1013 R88/290051 NOSIG
Conditions at: UUEE (MOSCOW/SHEREMET', RU) observed 0300 UTC 18 October 2019
Temperature: 11.0°C (52°F)
Dewpoint: 11.0°C (52°F) [RH = 100%]
Pressure (altimeter): 29.91 inches Hg (1013.0 mb)
Winds: from the W (270 degrees) at 12 MPH (10 knots; 5.1 m/s)
Visibility: 6 or more miles (10+ km)
Ceiling: 1900 feet AGL
Clouds: overcast cloud deck at 1900 feet AGL
Weather: no significant weather observed at this time

METAR text: UUEE 180230Z 27004MPS 9999 OVC008 11/11 Q1013 R88/290051 NOSIG
Conditions at: UUEE (MOSCOW/SHEREMET', RU) observed 0230 UTC 18 October 2019
Temperature: 11.0°C (52°F)
Dewpoint: 11.0°C (52°F) [RH = 100%]
Pressure (altimeter): 29.91 inches Hg (1013.0 mb)
Winds: from the W (270 degrees) at 9 MPH (8 knots; 4.1 m/s)
Visibility: 6 or more miles (10+ km)
Ceiling: 800 feet AGL
Clouds: overcast cloud deck at 800 feet AGL
Weather: no significant weather observed at this time

METAR text: UUEE 180200Z 25005MPS 8000 -DZ OVC008 11/11 Q1013 REDZ R24L/190057 R24R/190057 NOSIG
Conditions at: UUEE (MOSCOW/SHEREMET', RU) observed 0200 UTC 18 October 2019
Temperature: 11.0°C (52°F)
Dewpoint: 11.0°C (52°F) [RH = 100%]
Pressure (altimeter): 29.91 inches Hg (1013.0 mb)
Winds: from the WSW (250 degrees) at 12 MPH (10 knots; 5.1 m/s)
Visibility: 5 miles ( 8 km)
Ceiling: 800 feet AGL
Clouds: overcast cloud deck at 800 feet AGL
Weather: -DZ  (light drizzle)

METAR text: UUEE 180130Z 26005MPS 9999 OVC007 12/11 Q1013 R24L/190057 R24R/190057 NOSIG
Conditions at: UUEE (MOSCOW/SHEREMET', RU) observed 0130 UTC 18 October 2019
Temperature: 12.0°C (54°F)
Dewpoint: 11.0°C (52°F) [RH = 94%]
Pressure (altimeter): 29.91 inches Hg (1013.0 mb)
Winds: from the W (260 degrees) at 12 MPH (10 knots; 5.1 m/s)
Visibility: 6 or more miles (10+ km)
Ceiling: 700 feet AGL
Clouds: overcast cloud deck at 700 feet AGL
Weather: no significant weather observed at this time

METAR text: UUEE 180100Z 25005MPS 9999 OVC008 12/11 Q1013 R24L/190057 R24R/190057 NOSIG
Conditions at: UUEE (MOSCOW/SHEREMET', RU) observed 0100 UTC 18 October 2019
Temperature: 12.0°C (54°F)
Dewpoint: 11.0°C (52°F) [RH = 94%]
Pressure (altimeter): 29.91 inches Hg (1013.0 mb)
Winds: from the WSW (250 degrees) at 12 MPH (10 knots; 5.1 m/s)
Visibility: 6 or more miles (10+ km)
Ceiling: 800 feet AGL
Clouds: overcast cloud deck at 800 feet AGL
Weather: no significant weather observed at this time

METAR text: UUEE 180030Z 25004MPS 9999 OVC011 12/11 Q1013 R24L/190057 R24R/190057 NOSIG
Conditions at: UUEE (MOSCOW/SHEREMET', RU) observed 0030 UTC 18 October 2019
Temperature: 12.0°C (54°F)
Dewpoint: 11.0°C (52°F) [RH = 94%]
Pressure (altimeter): 29.91 inches Hg (1013.0 mb)
Winds: from the WSW (250 degrees) at 9 MPH (8 knots; 4.1 m/s)
Visibility: 6 or more miles (10+ km)
Ceiling: 1100 feet AGL
Clouds: overcast cloud deck at 1100 feet AGL
Weather: no significant weather observed at this time

METAR text: UUEE 180000Z 26004MPS 9999 OVC009 12/10 Q1013 R24L/190057 R24R/190057 NOSIG
Conditions at: UUEE (MOSCOW/SHEREMET', RU) observed 0000 UTC 18 October 2019
Temperature: 12.0°C (54°F)
Dewpoint: 10.0°C (50°F) [RH = 88%]
Pressure (altimeter): 29.91 inches Hg (1013.0 mb)
Winds: from the W (260 degrees) at 9 MPH (8 knots; 4.1 m/s)
Visibility: 6 or more miles (10+ km)
Ceiling: 900 feet AGL
Clouds: overcast cloud deck at 900 feet AGL
Weather: no significant weather observed at this time

METAR text: UUEE 172330Z 25003MPS 9999 BKN010 12/10 Q1013 R24L/190057 R24R/190057 NOSIG
Conditions at: UUEE (MOSCOW/SHEREMET', RU) observed 2330 UTC 17 October 2019
Temperature: 12.0°C (54°F)
Dewpoint: 10.0°C (50°F) [RH = 88%]
Pressure (altimeter): 29.91 inches Hg (1013.0 mb)
Winds: from the WSW (250 degrees) at 7 MPH (6 knots; 3.1 m/s)
Visibility: 6 or more miles (10+ km)
Ceiling: 1000 feet AGL
Clouds: broken clouds at 1000 feet AGL
Weather: no significant weather observed at this time

METAR text: UUEE 172300Z 28004MPS 9999 BKN015 12/10 Q1013 R24L/190057 R24R/190057 NOSIG
Conditions at: UUEE (MOSCOW/SHEREMET', RU) observed 2300 UTC 17 October 2019
Temperature: 12.0°C (54°F)
Dewpoint: 10.0°C (50°F) [RH = 88%]
Pressure (altimeter): 29.91 inches Hg (1013.0 mb)
Winds: from the W (280 degrees) at 9 MPH (8 knots; 4.1 m/s)
Visibility: 6 or more miles (10+ km)
Ceiling: 1500 feet AGL
Clouds: broken clouds at 1500 feet AGL
Weather: no significant weather observed at this time

METAR text: UUEE 172230Z 27006MPS 9999 OVC017 13/10 Q1012 R24L/190057 R24R/190057 NOSIG
Conditions at: UUEE (MOSCOW/SHEREMET', RU) observed 2230 UTC 17 October 2019
Temperature: 13.0°C (55°F)
Dewpoint: 10.0°C (50°F) [RH = 82%]
Pressure (altimeter): 29.88 inches Hg (1012.0 mb)
Winds: from the W (270 degrees) at 14 MPH (12 knots; 6.2 m/s)
Visibility: 6 or more miles (10+ km)
Ceiling: 1700 feet AGL
Clouds: overcast cloud deck at 1700 feet AGL
Weather: no significant weather observed at this time

METAR text: UUEE 172200Z 27007MPS 9999 BKN018 13/09 Q1012 R24L/190057 R24R/190057 NOSIG
Conditions at: UUEE (MOSCOW/SHEREMET', RU) observed 2200 UTC 17 October 2019
Temperature: 13.0°C (55°F)
Dewpoint: 9.0°C (48°F) [RH = 77%]
Pressure (altimeter): 29.88 inches Hg (1012.0 mb)
Winds: from the W (270 degrees) at 16 MPH (14 knots; 7.2 m/s)
Visibility: 6 or more miles (10+ km)
Ceiling: 1800 feet AGL
Clouds: broken clouds at 1800 feet AGL
Weather: no significant weather observed at this time

METAR text: UUEE 172130Z 26006MPS 9999 SCT030 13/09 Q1012 R24L/190057 R24R/190057 NOSIG
Conditions at: UUEE (MOSCOW/SHEREMET', RU) observed 2130 UTC 17 October 2019
Temperature: 13.0°C (55°F)
Dewpoint: 9.0°C (48°F) [RH = 77%]
Pressure (altimeter): 29.88 inches Hg (1012.0 mb)
Winds: from the W (260 degrees) at 14 MPH (12 knots; 6.2 m/s)
Visibility: 6 or more miles (10+ km)
Ceiling: at least 12,000 feet AGL
Clouds: scattered clouds at 3000 feet AGL
Weather: no significant weather observed at this time

METAR text: UUEE 172100Z 24005MPS 9999 -RA SCT034 14/09 Q1012 R88/190057 NOSIG
Conditions at: UUEE (MOSCOW/SHEREMET', RU) observed 2100 UTC 17 October 2019
Temperature: 14.0°C (57°F)
Dewpoint: 9.0°C (48°F) [RH = 72%]
Pressure (altimeter): 29.88 inches Hg (1012.0 mb)
Winds: from the WSW (240 degrees) at 12 MPH (10 knots; 5.1 m/s)
Visibility: 6 or more miles (10+ km)
Ceiling: at least 12,000 feet AGL
Clouds: scattered clouds at 3400 feet AGL
Weather: -RA  (light rain)

METAR text: UUEE 172030Z 24006MPS 9999 -RA NSC 14/09 Q1012 R88/62D NOSIG
Conditions at: UUEE (MOSCOW/SHEREMET', RU) observed 2030 UTC 17 October 2019
Temperature: 14.0°C (57°F)
Dewpoint: 9.0°C (48°F) [RH = 72%]
Pressure (altimeter): 29.88 inches Hg (1012.0 mb)
Winds: from the WSW (240 degrees) at 14 MPH (12 knots; 6.2 m/s)
Visibility: 6 or more miles (10+ km)
Ceiling: at least 12,000 feet AGL
Clouds: sky clear below 12,000 feet AGL
Weather: -RA  (light rain)

METAR text: UUEE 172000Z 23005MPS CAVOK 15/08 Q1012 R88/62D NOSIG
Conditions at: UUEE (MOSCOW/SHEREMET', RU) observed 2000 UTC 17 October 2019
Temperature: 15.0°C (59°F)
Dewpoint: 8.0°C (46°F) [RH = 63%]
Pressure (altimeter): 29.88 inches Hg (1012.0 mb)
Winds: from the SW (230 degrees) at 12 MPH (10 knots; 5.1 m/s)
Visibility: 6 or more miles (10+ km)
Ceiling: ceiling and visibility are OK
Clouds: unknown
Weather: no significant weather observed at this time

METAR text: UUEE 171930Z 24004MPS CAVOK 15/09 Q1012 R88/CLRD62 NOSIG
Conditions at: UUEE (MOSCOW/SHEREMET', RU) observed 1930 UTC 17 October 2019
Temperature: 15.0°C (59°F)
Dewpoint: 9.0°C (48°F) [RH = 67%]
Pressure (altimeter): 29.88 inches Hg (1012.0 mb)
Winds: from the WSW (240 degrees) at 9 MPH (8 knots; 4.1 m/s)
Visibility: 6 or more miles (10+ km)
Ceiling: ceiling and visibility are OK
Clouds: unknown
Weather: no significant weather observed at this time

METAR text: UUEE 171900Z 25004MPS CAVOK 14/09 Q1012 R88/CLRD62 NOSIG
Conditions at: UUEE (MOSCOW/SHEREMET', RU) observed 1900 UTC 17 October 2019
Temperature: 14.0°C (57°F)
Dewpoint: 9.0°C (48°F) [RH = 72%]
Pressure (altimeter): 29.88 inches Hg (1012.0 mb)
Winds: from the WSW (250 degrees) at 9 MPH (8 knots; 4.1 m/s)
Visibility: 6 or more miles (10+ km)
Ceiling: ceiling and visibility are OK
Clouds: unknown
Weather: no significant weather observed at this time

METAR text: UUEE 171830Z 26005MPS CAVOK 14/09 Q1012 R88/CLRD62 NOSIG
Conditions at: UUEE (MOSCOW/SHEREMET', RU) observed 1830 UTC 17 October 2019
Temperature: 14.0°C (57°F)
Dewpoint: 9.0°C (48°F) [RH = 72%]
Pressure (altimeter): 29.88 inches Hg (1012.0 mb)
Winds: from the W (260 degrees) at 12 MPH (10 knots; 5.1 m/s)
Visibility: 6 or more miles (10+ km)
Ceiling: ceiling and visibility are OK
Clouds: unknown
Weather: no significant weather observed at this time

METAR text: UUEE 171800Z 25005MPS 9999 SCT043 14/08 Q1012 R88/62D NOSIG
Conditions at: UUEE (MOSCOW/SHEREMET', RU) observed 1800 UTC 17 October 2019
Temperature: 14.0°C (57°F)
Dewpoint: 8.0°C (46°F) [RH = 67%]
Pressure (altimeter): 29.88 inches Hg (1012.0 mb)
Winds: from the WSW (250 degrees) at 12 MPH (10 knots; 5.1 m/s)
Visibility: 6 or more miles (10+ km)
Ceiling: at least 12,000 feet AGL
Clouds: scattered clouds at 4300 feet AGL
Weather: no significant weather observed at this time

METAR text: UUEE 171730Z 24006MPS 9999 SCT043 15/08 Q1012 R88/62D NOSIG
Conditions at: UUEE (MOSCOW/SHEREMET', RU) observed 1730 UTC 17 October 2019
Temperature: 15.0°C (59°F)
Dewpoint: 8.0°C (46°F) [RH = 63%]
Pressure (altimeter): 29.88 inches Hg (1012.0 mb)
Winds: from the WSW (240 degrees) at 14 MPH (12 knots; 6.2 m/s)
Visibility: 6 or more miles (10+ km)
Ceiling: at least 12,000 feet AGL
Clouds: scattered clouds at 4300 feet AGL
Weather: no significant weather observed at this time

METAR text: UUEE 171700Z 22004MPS 9999 SCT048 16/08 Q1012 R88/CLRD62 NOSIG
Conditions at: UUEE (MOSCOW/SHEREMET', RU) observed 1700 UTC 17 October 2019
Temperature: 16.0°C (61°F)
Dewpoint: 8.0°C (46°F) [RH = 59%]
Pressure (altimeter): 29.88 inches Hg (1012.0 mb)
Winds: from the SW (220 degrees) at 9 MPH (8 knots; 4.1 m/s)
Visibility: 6 or more miles (10+ km)
Ceiling: at least 12,000 feet AGL
Clouds: scattered clouds at 4800 feet AGL
Weather: no significant weather observed at this time

METAR text: UUEE 171630Z 22004MPS CAVOK 17/08 Q1012 R88/CLRD62 NOSIG
Conditions at: UUEE (MOSCOW/SHEREMET', RU) observed 1630 UTC 17 October 2019
Temperature: 17.0°C (63°F)
Dewpoint: 8.0°C (46°F) [RH = 55%]
Pressure (altimeter): 29.88 inches Hg (1012.0 mb)
Winds: from the SW (220 degrees) at 9 MPH (8 knots; 4.1 m/s)
Visibility: 6 or more miles (10+ km)
Ceiling: ceiling and visibility are OK
Clouds: unknown
Weather: no significant weather observed at this time

METAR text: UUEE 171600Z 21004MPS 9999 SCT047 17/08 Q1012 R88/CLRD62 NOSIG
Conditions at: UUEE (MOSCOW/SHEREMET', RU) observed 1600 UTC 17 October 2019
Temperature: 17.0°C (63°F)
Dewpoint: 8.0°C (46°F) [RH = 55%]
Pressure (altimeter): 29.88 inches Hg (1012.0 mb)
Winds: from the SSW (210 degrees) at 9 MPH (8 knots; 4.1 m/s)
Visibility: 6 or more miles (10+ km)
Ceiling: at least 12,000 feet AGL
Clouds: scattered clouds at 4700 feet AGL
Weather: no significant weather observed at this time

METAR text: UUEE 171530Z 21004MPS 180V240 9999 SCT046 16/08 Q1012 R88/CLRD62 NOSIG
Conditions at: UUEE (MOSCOW/SHEREMET', RU) observed 1530 UTC 17 October 2019
Temperature: 16.0°C (61°F)
Dewpoint: 8.0°C (46°F) [RH = 59%]
Pressure (altimeter): 29.88 inches Hg (1012.0 mb)
Winds: from the SSW (210 degrees) at 9 MPH (8 knots; 4.1 m/s)
Visibility: 6 or more miles (10+ km)
Ceiling: at least 12,000 feet AGL
Clouds: scattered clouds at 4600 feet AGL
Weather: no significant weather observed at this time

METAR text: UUEE 171500Z 21004MPS CAVOK 16/09 Q1012 R88/CLRD62 NOSIG
Conditions at: UUEE (MOSCOW/SHEREMET', RU) observed 1500 UTC 17 October 2019
Temperature: 16.0°C (61°F)
Dewpoint: 9.0°C (48°F) [RH = 63%]
Pressure (altimeter): 29.88 inches Hg (1012.0 mb)
Winds: from the SSW (210 degrees) at 9 MPH (8 knots; 4.1 m/s)
Visibility: 6 or more miles (10+ km)
Ceiling: ceiling and visibility are OK
Clouds: unknown
Weather: no significant weather observed at this time

METAR text: UUEE 171430Z 20004MPS 180V240 CAVOK 17/08 Q1012 R88/62D NOSIG
Conditions at: UUEE (MOSCOW/SHEREMET', RU) observed 1430 UTC 17 October 2019
Temperature: 17.0°C (63°F)
Dewpoint: 8.0°C (46°F) [RH = 55%]
Pressure (altimeter): 29.88 inches Hg (1012.0 mb)
Winds: from the SSW (200 degrees) at 9 MPH (8 knots; 4.1 m/s)
Visibility: 6 or more miles (10+ km)
Ceiling: ceiling and visibility are OK
Clouds: unknown
Weather: no significant weather observed at this time

METAR text: UUEE 171400Z 20005MPS CAVOK 17/09 Q1012 R88/62D NOSIG
Conditions at: UUEE (MOSCOW/SHEREMET', RU) observed 1400 UTC 17 October 2019
Temperature: 17.0°C (63°F)
Dewpoint: 9.0°C (48°F) [RH = 59%]
Pressure (altimeter): 29.88 inches Hg (1012.0 mb)
Winds: from the SSW (200 degrees) at 12 MPH (10 knots; 5.1 m/s)
Visibility: 6 or more miles (10+ km)
Ceiling: ceiling and visibility are OK
Clouds: unknown
Weather: no significant weather observed at this time

METAR text: UUEE 171330Z 20004MPS 170V230 CAVOK 18/09 Q1012 R88/62D NOSIG
Conditions at: UUEE (MOSCOW/SHEREMET', RU) observed 1330 UTC 17 October 2019
Temperature: 18.0°C (64°F)
Dewpoint: 9.0°C (48°F) [RH = 56%]
Pressure (altimeter): 29.88 inches Hg (1012.0 mb)
Winds: from the SSW (200 degrees) at 9 MPH (8 knots; 4.1 m/s)
Visibility: 6 or more miles (10+ km)
Ceiling: ceiling and visibility are OK
Clouds: unknown
Weather: no significant weather observed at this time

METAR text: UUEE 171300Z 21004G09MPS CAVOK 18/09 Q1012 R88/CLRD62 NOSIG
Conditions at: UUEE (MOSCOW/SHEREMET', RU) observed 1300 UTC 17 October 2019
Temperature: 18.0°C (64°F)
Dewpoint: 9.0°C (48°F) [RH = 56%]
Pressure (altimeter): 29.88 inches Hg (1012.0 mb)
Winds: from the SSW (210 degrees) at 9 MPH (8 knots; 4.1 m/s)
gusting to 20 MPH (17 knots; 8.7 m/s)
Visibility: 6 or more miles (10+ km)
Ceiling: ceiling and visibility are OK
Clouds: unknown
Weather: no significant weather observed at this time

METAR text: UUEE 171230Z 21004MPS 180V240 CAVOK 18/09 Q1013 R88/62D NOSIG
Conditions at: UUEE (MOSCOW/SHEREMET', RU) observed 1230 UTC 17 October 2019
Temperature: 18.0°C (64°F)
Dewpoint: 9.0°C (48°F) [RH = 56%]
Pressure (altimeter): 29.91 inches Hg (1013.0 mb)
Winds: from the SSW (210 degrees) at 9 MPH (8 knots; 4.1 m/s)
Visibility: 6 or more miles (10+ km)
Ceiling: ceiling and visibility are OK
Clouds: unknown
Weather: no significant weather observed at this time

METAR text: UUEE 171200Z 19004MPS CAVOK 18/09 Q1013 R88/62D NOSIG
Conditions at: UUEE (MOSCOW/SHEREMET', RU) observed 1200 UTC 17 October 2019
Temperature: 18.0°C (64°F)
Dewpoint: 9.0°C (48°F) [RH = 56%]
Pressure (altimeter): 29.91 inches Hg (1013.0 mb)
Winds: from the S (190 degrees) at 9 MPH (8 knots; 4.1 m/s)
Visibility: 6 or more miles (10+ km)
Ceiling: ceiling and visibility are OK
Clouds: unknown
Weather: no significant weather observed at this time

Forecast for: AMD
Text: TAF AMD UUEE 182317Z 1900/1924 VRB01MPS 0200 FG VV001 TX14/1912Z TN08/1902Z
Forecast period: 0000 to 0500 UTC 19 October 2019
Forecast type: FROM: standard forecast or significant change
Winds: variable direction winds at 2 MPH (2 knots; 1.0 m/s)
Visibility: 0.12 miles (0.19 km)
Ceiling: indefinite ceiling with vertical visibility of 100 feet AGL
Clouds: obscured sky
Weather: FG  (fog)
Text: TEMPO 1900/1905 0900 FG BKN002
Forecast period: 0000 to 0500 UTC 19 October 2019
Forecast type: TEMPORARY: The following changes expected for less than half the time period
Visibility: 0.56 miles (0.90 km)
Ceiling: 200 feet AGL
Clouds: broken clouds at 200 feet AGL
Weather: FG  (fog)
Text: BECMG 1905/1906 6000 NSW BKN004
Forecast period: 0500 to 0600 UTC 19 October 2019
Forecast type: BECOMING: Conditions expected to become as follows by 0600 UTC 19 October 2019
Winds: variable direction winds at 2 MPH (2 knots; 1.0 m/s)
Visibility: 4 miles (6 km)
Ceiling: 400 feet AGL
Clouds: broken clouds at 400 feet AGL
Weather: NSW  (no significant weather)
Text: BECMG 1906/1908 18005MPS BKN015
Forecast period: 0600 UTC 19 October 2019 to 0000 UTC 20 October 2019
Forecast type: BECOMING: Conditions expected to become as follows by 0800 UTC 19 October 2019
Winds: from the S (180 degrees) at 12 MPH (10 knots; 5.1 m/s)
Visibility: 4 miles (6 km)
Ceiling: 1500 feet AGL
Clouds: broken clouds at 1500 feet AGL
Weather: NSW  (no significant weather)